AirNav   Advertisement
 
 873 users online  

8WA3 Valley Medical Center Heliport
Renton, Washington, USA

GOING TO RENTON?


FAA INFORMATION EFFECTIVE 20 JULY 2017

Location

FAA Identifier: 8WA3
Lat/Long: 47-26-30.4700N / 122-12-52.3900W
47-26.507833N / 122-12.873167W
47.4417972 / -122.2145528
(estimated)
Elevation: 100 ft. / 30 m (estimated)
Variation: 20E (1985)
From city: 3 miles S of RENTON, WA
Time zone: UTC -7 (UTC -8 during Standard Time)
Zip code: 98055

Heliport Operations

Heliport use: Private use, MEDICAL USE.
Activation date: 03/1976
Control tower: no
ARTCC: SEATTLE CENTER
FSS: SEATTLE FLIGHT SERVICE STATION
Attendance: UNATNDD
Wind indicator: lighted
Segmented circle: no
Lights: SS-SR

Heliport Communications

WX ASOS at RNT (3 nm N): PHONE 425-255-6080
WX ASOS at SEA (4 nm W): PHONE 206-431-2834
WX ASOS at BFI (6 nm NW): PHONE 206-763-6904
WX ASOS at TIW (18 nm SW): PHONE 253-858-6507

Nearby radio navigation aids

VOR radial/distance  VOR name  Freq  Var
SEAr065/3.9SEATTLE VORTAC116.8019E
TCMr016/20.6MCCHORD VORTAC109.6015E
PAEr155/28.8PAINE VOR/DME110.6020E
OLMr026/39.8OLYMPIA VORTAC113.4019E

 
NDB name  Hdg/Dist  Freq  Var  ID
RENTON163/3.235317ERNT .-. -. -
PARRK130/6.628115EHPK .... .--. -.-
NOLLA133/13.536215EBF -... ..-.
GRAYE026/23.621616EGRF --. .-. ..-.
LACOMAS012/29.532816ELAC .-.. .- -.-.
MASON COUNTY053/37.334819EMNC -- -. -.-.

Heliport Services

Runway Information

Helipad H1

Dimensions: 118 x 118 ft. / 36 x 36 m
Surface: asphalt
Runway edge lights: PERIMETER LGTS.
Latitude: 47-26.507833N
Longitude: 122-12.873167W
Elevation: 100.0 ft.
Traffic pattern: leftleft

Heliport Ownership and Management from official FAA records

Ownership: Publicly-owned
Owner: PUB.HOSPITAL DISTRICT-1
400 SOUTH 43RD ST
RENTON, WA 98055
Phone 425-228-3440
Manager: RICHARD D. ROODMAN, ADMIN.
400 SOUTH 43RD ST.
RENTON, WA 98055
Phone 425-228-3440
GARRY MAITREJEAN - 425-228-3440

Instrument Procedures

There are no published instrument procedures at 8WA3.

Some nearby airports with instrument procedures:

KRNT - Renton Municipal Airport (3 nm N)
KSEA - Seattle-Tacoma International Airport (4 nm W)
KBFI - Boeing Field/King County International Airport (6 nm NW)
S50 - Auburn Municipal Airport (7 nm S)
KTIW - Tacoma Narrows Airport (18 nm SW)
 
Loc | Ops | Rwys | IFR | FBO | Links
Com | Nav | Svcs | Stats | Notes


 
Area around 8WA3 (Valley Medical Center Heliport)
 
Road maps at: MapQuest Bing Google
 
Aerial photo
No photo
 
Sectional chart

 
Airport distance calculator
Flying to Valley Medical Center Heliport? Find the distance to fly.

From to 8WA3

Sunrise and sunset
Times for 27-Jul-2017
 Local
(UTC-7)
 Zulu
(UTC)
Morning civil twilight05:0512:05
Sunrise05:4212:42
Sunset20:4903:49
Evening civil twilight21:2604:26

Current date and time
Zulu (UTC)  28-Jul-2017 02:40:07
Local (UTC-7)  27-Jul-2017 19:40:07
 
METAR
KRNT 
3nm N 
280153Z 33006KT 10SM CLR 21/13 A3010 RMK AO2 SLP196 T02110133
KSEA 
4nm W 
280153Z 29006KT 10SM SCT028 21/13 A3011 RMK AO2 SLP202 T02060128
KBFI 
8nm NW 
280153Z 35009KT 10SM FEW030 21/13 A3010 RMK AO2 SLP193 T02060133
KTIW 
18nm SW 
280153Z 23005KT 10SM SCT030 21/12 A3010 RMK AO2 SLP192 T02060122
TAF
KSEA 
4nm W 
272100Z 2721/2824 20006KT P6SM BKN023 BKN050 FM272300 25006KT P6SM SCT025 SCT050 FM280200 36005KT P6SM FEW050 FM280900 02004KT P6SM SCT020 BKN050 FM281200 VRB03KT P6SM BKN020 OVC050 FM281800 28006KT P6SM SCT050
KBFI 
8nm NW 
272101Z 2721/2818 23007KT P6SM BKN025 BKN050 FM272300 25006KT P6SM SCT025 SCT050 FM280100 30005KT P6SM FEW050 FM280900 VRB03KT P6SM FEW025 BKN050 FM281300 VRB03KT P6SM BKN025 BKN050
NOTAMs
Click for the latest NOTAMs
NOTAMs are issued by the DoD/FAA and will open in a separate window not controlled by AirNav.

 

 
 

Would you like to see your business listed on this page?

 If your business provides an interesting product or service to pilots, flight crews, aircraft, or users of the Valley Medical Center Heliport, you should consider listing it here.  To start the listing process, click on the button below
 
Add a business
 

Other Pages about Valley Medical Center Heliport

Update a link
 
Copyright © AirNav, LLC. All rights reserved. Privacy Policy  Contact